Time;durP1;ratioP1;P1;durP2;ratioP2;P2;SDS_P1;SDS_P2;PMS_P1;PMS_P2;Temp;Humidity;BMP_temperature;BMP_pressure;BME280_temperature;BME280_humidity;BME280_pressure;Samples;Min_cycle;Max_cycle;Signal;HPM_P1;HPM_P2
2023/12/13 00:00:53;;;;;;;167.38;49.03;;;;;;;6.25;100.00;99495.75;10422163;28;20036;-77
2023/12/13 00:05:54;;;;;;;146.05;49.20;;;;;;;6.29;100.00;99493.31;10440297;28;20928;-78
2023/12/13 00:10:58;;;;;;;213.75;50.50;;;;;;;6.29;100.00;99490.59;10423507;28;20059;-76
2023/12/13 00:15:58;;;;;;;126.10;44.75;;;;;;;6.31;100.00;99488.41;10407930;28;20550;-78
2023/12/13 00:20:59;;;;;;;151.43;44.83;;;;;;;6.26;100.00;99480.97;10403103;28;20041;-79
2023/12/13 00:25:59;;;;;;;142.32;45.40;;;;;;;6.21;100.00;99459.91;10464713;28;20056;-79
2023/12/13 00:31:00;;;;;;;140.70;47.28;;;;;;;6.22;100.00;99464.28;10448314;28;20033;-79
2023/12/13 00:36:00;;;;;;;110.32;44.63;;;;;;;5.98;100.00;99435.66;10424283;28;20086;-79
2023/12/13 00:41:00;;;;;;;147.57;45.20;;;;;;;6.19;100.00;99470.28;10435223;28;20053;-80
2023/12/13 00:46:01;;;;;;;167.73;45.83;;;;;;;6.19;100.00;99486.66;10440708;28;20036;-79
2023/12/13 00:51:01;;;;;;;157.80;46.05;;;;;;;6.21;100.00;99478.22;10399388;28;20639;-78
2023/12/13 00:56:02;;;;;;;214.20;47.90;;;;;;;6.22;100.00;99480.69;10390971;28;20037;-78
2023/12/13 01:01:03;;;;;;;168.85;47.65;;;;;;;6.16;100.00;99476.25;10424047;28;20121;-78
2023/12/13 01:06:09;;;;;;;183.90;48.47;;;;;;;6.12;100.00;99466.94;10423839;28;20080;-78
2023/12/13 01:11:09;;;;;;;136.47;45.23;;;;;;;6.16;100.00;99480.88;10419735;28;20055;-77
2023/12/13 01:16:10;;;;;;;193.88;46.25;;;;;;;6.15;100.00;99484.72;10418689;28;20073;-77
2023/12/13 01:21:11;;;;;;;161.60;48.55;;;;;;;6.19;100.00;99486.66;10419217;28;20045;-77
2023/12/13 01:26:11;;;;;;;155.52;47.97;;;;;;;6.13;100.00;99487.69;10403694;28;20040;-77
2023/12/13 01:31:12;;;;;;;174.07;51.53;;;;;;;6.20;100.00;99485.59;10423645;28;20121;-77
2023/12/13 01:36:12;;;;;;;232.82;55.03;;;;;;;6.22;100.00;99491.63;10439624;28;20083;-78
2023/12/13 01:41:13;;;;;;;200.10;52.83;;;;;;;6.28;100.00;99495.22;10420336;28;20063;-77
2023/12/13 01:46:17;;;;;;;193.93;55.88;;;;;;;6.26;100.00;99498.22;10421109;28;20049;-77
2023/12/13 01:51:18;;;;;;;231.90;55.08;;;;;;;6.31;100.00;99504.81;10421739;28;20041;-77
2023/12/13 01:56:18;;;;;;;193.07;53.22;;;;;;;6.22;100.00;99474.38;10404241;28;20048;-77
2023/12/13 02:01:18;;;;;;;220.27;54.67;;;;;;;6.29;100.00;99491.41;10416574;28;20111;-77
2023/12/13 02:06:19;;;;;;;250.90;55.30;;;;;;;6.36;100.00;99502.13;10437423;28;20512;-78
2023/12/13 02:11:20;;;;;;;213.73;57.22;;;;;;;6.34;100.00;99493.34;10413122;28;20052;-77
2023/12/13 02:16:21;;;;;;;250.25;56.13;;;;;;;6.36;100.00;99488.44;10403365;28;20048;-77
2023/12/13 02:21:21;;;;;;;162.88;51.40;;;;;;;6.40;100.00;99492.31;10421316;28;20097;-77
2023/12/13 02:26:22;;;;;;;207.40;56.65;;;;;;;6.37;100.00;99481.91;10421764;28;20037;-75
2023/12/13 02:31:22;;;;;;;208.50;51.75;;;;;;;6.31;100.00;99472.03;10416201;28;20053;-77
2023/12/13 02:36:23;;;;;;;203.13;54.28;;;;;;;6.35;100.00;99492.28;10403170;28;20045;-77
2023/12/13 02:41:23;;;;;;;213.75;54.20;;;;;;;6.30;100.00;99487.56;10418774;28;20048;-76
2023/12/13 02:46:24;;;;;;;202.93;56.78;;;;;;;6.32;100.00;99484.59;10404130;28;20041;-77
2023/12/13 02:51:24;;;;;;;202.07;54.00;;;;;;;6.31;100.00;99472.03;10419660;28;20037;-77
2023/12/13 02:56:25;;;;;;;188.15;55.05;;;;;;;6.33;100.00;99480.78;10434864;28;20120;-76
2023/12/13 03:01:25;;;;;;;216.48;55.03;;;;;;;6.30;100.00;99486.75;10411381;28;20041;-77
2023/12/13 03:06:25;;;;;;;237.65;56.25;;;;;;;6.20;100.00;99480.13;10435429;28;20052;-77
2023/12/13 03:11:27;;;;;;;190.10;55.28;;;;;;;6.22;100.00;99479.84;10431487;28;20091;-77
2023/12/13 03:16:28;;;;;;;208.88;54.75;;;;;;;6.23;100.00;99481.50;10433745;28;20037;-76
2023/12/13 03:21:28;;;;;;;182.02;53.53;;;;;;;6.21;100.00;99473.56;10416092;28;20575;-77
2023/12/13 03:26:29;;;;;;;173.98;54.63;;;;;;;6.22;100.00;99475.22;10418421;28;20041;-77
2023/12/13 03:31:29;;;;;;;269.75;56.58;;;;;;;6.15;100.00;99468.31;10434986;28;20029;-77
2023/12/13 03:36:30;;;;;;;185.05;54.65;;;;;;;6.11;100.00;99467.19;10427841;28;20076;-77
2023/12/13 03:41:30;;;;;;;187.98;53.78;;;;;;;6.15;100.00;99479.25;10400079;28;20048;-77
2023/12/13 03:46:31;;;;;;;203.95;56.45;;;;;;;6.10;100.00;99465.53;10423333;28;20108;-77
2023/12/13 03:51:31;;;;;;;199.57;53.28;;;;;;;6.13;100.00;99471.31;10443285;28;20044;-77
2023/12/13 03:56:33;;;;;;;174.85;53.20;;;;;;;6.14;100.00;99477.59;10410096;28;20139;-76
2023/12/13 04:01:33;;;;;;;231.70;54.70;;;;;;;6.07;100.00;99469.59;10426828;28;20049;-77
2023/12/13 04:06:34;;;;;;;202.23;52.58;;;;;;;6.14;100.00;99472.97;10405522;28;20068;-77
2023/12/13 04:11:35;;;;;;;204.10;55.17;;;;;;;6.10;100.00;99471.84;10417611;28;20056;-78
2023/12/13 04:16:35;;;;;;;188.05;55.75;;;;;;;6.05;100.00;99447.19;10405485;28;20580;-78
2023/12/13 04:21:36;;;;;;;327.33;60.70;;;;;;;6.14;100.00;99466.66;10439742;28;20045;-76
2023/12/13 04:26:36;;;;;;;229.15;58.53;;;;;;;6.21;100.00;99473.56;10404866;28;20091;-76
2023/12/13 04:31:37;;;;;;;232.30;59.33;;;;;;;6.15;100.00;99458.22;10407047;28;20506;-77
2023/12/13 04:36:37;;;;;;;208.05;61.92;;;;;;;6.20;100.00;99471.94;10434834;28;20037;-77
2023/12/13 04:41:38;;;;;;;245.18;59.55;;;;;;;6.25;100.00;99469.22;10406375;28;20040;-77
2023/12/13 04:46:39;;;;;;;170.50;57.13;;;;;;;6.27;100.00;99460.78;10416573;28;20057;-78
2023/12/13 04:51:40;;;;;;;202.02;58.10;;;;;;;6.34;100.00;99483.22;10407419;28;20040;-77
2023/12/13 04:56:40;;;;;;;201.80;58.10;;;;;;;6.32;100.00;99473.66;10441275;28;20040;-77
2023/12/13 05:01:41;;;;;;;192.05;59.42;;;;;;;6.28;100.00;99456.13;10417853;28;20060;-78
2023/12/13 05:06:41;;;;;;;268.40;60.47;;;;;;;6.38;100.00;99478.09;10440138;28;20048;-78
2023/12/13 05:11:42;;;;;;;183.23;58.72;;;;;;;6.40;100.00;99475.91;10420399;28;20040;-78
2023/12/13 05:16:42;;;;;;;223.10;60.67;;;;;;;6.41;100.00;99477.56;10439877;28;20044;-78
2023/12/13 05:21:43;;;;;;;201.45;55.60;;;;;;;6.39;100.00;99468.81;10440341;28;20040;-77
2023/12/13 05:26:43;;;;;;;320.83;59.80;;;;;;;6.46;100.00;99483.06;10408169;28;20032;-78
2023/12/13 05:31:44;;;;;;;176.32;53.80;;;;;;;6.42;100.00;99473.75;10458009;28;20045;-78
2023/12/13 05:36:44;;;;;;;200.20;55.78;;;;;;;6.44;100.00;99477.03;10416342;28;20037;-78
2023/12/13 05:41:44;;;;;;;184.70;54.15;;;;;;;6.44;100.00;99479.78;10429758;28;20496;-78
2023/12/13 05:46:45;;;;;;;225.60;55.42;;;;;;;6.49;100.00;99477.09;10404924;28;20049;-76
2023/12/13 05:51:45;;;;;;;191.95;54.50;;;;;;;6.48;100.00;99486.38;10414848;28;20029;-78
2023/12/13 05:56:46;;;;;;;195.43;52.38;;;;;;;6.38;100.00;99456.22;10457599;28;20037;-78
2023/12/13 06:01:46;;;;;;;192.10;51.10;;;;;;;6.51;100.00;99488.59;10428244;28;20397;-78
2023/12/13 06:06:48;;;;;;;204.95;53.20;;;;;;;6.43;100.00;99472.66;10452104;28;20546;-77
2023/12/13 06:11:48;;;;;;;182.55;51.67;;;;;;;6.52;100.00;99489.41;10420796;28;20028;-78
2023/12/13 06:16:49;;;;;;;224.45;53.47;;;;;;;6.50;100.00;99492.41;10432935;28;20052;-78
2023/12/13 06:21:49;;;;;;;210.15;51.67;;;;;;;6.50;100.00;99491.56;10417823;28;20060;-79
2023/12/13 06:26:50;;;;;;;173.15;52.13;;;;;;;6.00;100.00;99430.75;10434415;28;20044;-78
2023/12/13 06:31:51;;;;;;;208.50;52.90;;;;;;;6.50;100.00;99497.88;10437444;28;20079;-79
2023/12/13 06:36:51;;;;;;;226.98;52.95;;;;;;;6.50;100.00;99510.72;10414792;28;20044;-78
2023/12/13 06:41:52;;;;;;;246.48;54.58;;;;;;;6.52;100.00;99498.44;10419151;28;20041;-78
2023/12/13 06:46:52;;;;;;;209.45;52.72;;;;;;;6.51;100.00;99501.41;10420437;28;20029;-77
2023/12/13 06:51:53;;;;;;;206.38;52.38;;;;;;;6.38;100.00;99494.47;10437271;28;20106;-78
2023/12/13 06:56:54;;;;;;;209.52;51.28;;;;;;;6.51;100.00;99520.56;10394791;28;20038;-78
2023/12/13 07:01:54;;;;;;;184.95;50.75;;;;;;;6.50;100.00;99514.28;10428326;28;20041;-78
2023/12/13 07:06:55;;;;;;;164.40;51.42;;;;;;;6.50;100.00;99519.75;10450174;28;20041;-77
2023/12/13 07:11:55;;;;;;;193.80;51.40;;;;;;;6.43;100.00;99509.03;10435282;28;20037;-78
2023/12/13 07:16:56;;;;;;;172.52;50.10;;;;;;;6.54;100.00;99523.59;10453823;28;20033;-78
2023/12/13 07:21:56;;;;;;;231.80;52.78;;;;;;;6.53;100.00;99524.69;10424182;28;20176;-77
2023/12/13 07:26:57;;;;;;;192.15;52.15;;;;;;;6.45;100.00;99516.97;10454781;28;20066;-78
2023/12/13 07:31:57;;;;;;;192.75;51.35;;;;;;;6.56;100.00;99529.63;10443766;28;20033;-78
2023/12/13 07:36:58;;;;;;;179.07;48.67;;;;;;;6.56;100.00;99546.03;10431134;28;20143;-78
2023/12/13 07:41:58;;;;;;;150.48;49.05;;;;;;;6.27;100.00;99504.50;10443141;28;20051;-78
2023/12/13 07:46:59;;;;;;;147.38;48.50;;;;;;;6.58;100.00;99543.88;10443783;28;20163;-77
2023/12/13 07:52:00;;;;;;;173.73;48.25;;;;;;;6.59;100.00;99550.97;10462268;28;20037;-78
2023/12/13 07:57:00;;;;;;;196.77;47.25;;;;;;;6.61;100.00;99554.28;10418063;28;20041;-77
2023/12/13 08:02:01;;;;;;;168.02;48.20;;;;;;;6.65;100.00;99560.88;10413129;28;20052;-77
2023/12/13 08:07:02;;;;;;;165.40;48.38;;;;;;;6.66;100.00;99568.00;10442509;28;20048;-77
2023/12/13 08:12:03;;;;;;;174.30;48.72;;;;;;;6.60;100.00;99558.09;10455757;28;20057;-77
2023/12/13 08:17:06;;;;;;;189.48;49.75;;;;;;;6.70;100.00;99579.25;10441148;28;20040;-77
2023/12/13 08:22:06;;;;;;;171.45;49.83;;;;;;;6.72;100.00;99571.63;10427158;28;20044;-77
2023/12/13 08:27:07;;;;;;;179.80;52.60;;;;;;;6.74;100.00;99574.06;10453117;28;20045;-76
2023/12/13 08:32:07;;;;;;;185.45;54.33;;;;;;;6.76;100.00;99567.28;10440712;28;20044;-77
2023/12/13 08:37:08;;;;;;;200.35;53.88;;;;;;;6.92;100.00;99587.34;10450228;28;20084;-76
2023/12/13 08:42:09;;;;;;;193.35;53.13;;;;;;;6.96;100.00;99598.59;10406836;28;20037;-77
2023/12/13 08:47:09;;;;;;;168.50;53.75;;;;;;;7.02;100.00;99592.09;10458463;28;20052;-77
2023/12/13 08:52:10;;;;;;;242.43;54.20;;;;;;;7.11;100.00;99601.47;10423713;28;20040;-77
2023/12/13 08:57:10;;;;;;;182.52;55.50;;;;;;;7.16;100.00;99601.50;10458478;28;20037;-77
2023/12/13 09:02:11;;;;;;;189.23;57.50;;;;;;;7.15;100.00;99590.81;10411792;28;20052;-77
2023/12/13 09:07:12;;;;;;;153.52;56.00;;;;;;;7.33;100.00;99617.75;10440718;28;20060;-77
2023/12/13 09:12:12;;;;;;;187.10;57.20;;;;;;;7.39;100.00;99613.97;10430911;28;20037;-77
2023/12/13 09:17:13;;;;;;;197.23;56.75;;;;;;;7.23;100.00;99574.69;10423422;28;20036;-77
2023/12/13 09:22:14;;;;;;;185.60;57.22;;;;;;;7.54;100.00;99609.66;10438678;28;20040;-77
2023/12/13 09:27:14;;;;;;;181.27;59.13;;;;;;;7.93;100.00;99609.31;10432314;28;20041;-77
2023/12/13 09:32:14;;;;;;;151.77;59.22;;;;;;;8.18;100.00;99634.06;10435661;28;20041;-77
2023/12/13 09:37:16;;;;;;;159.23;59.17;;;;;;;8.19;100.00;99629.44;10437114;28;20424;-77
2023/12/13 09:42:16;;;;;;;177.00;61.72;;;;;;;8.36;100.00;99642.91;10443762;28;20041;-78
2023/12/13 09:47:17;;;;;;;147.93;59.92;;;;;;;8.25;100.00;99651.09;10410982;28;20040;-77
2023/12/13 09:52:19;;;;;;;138.80;60.13;;;;;;;8.39;100.00;99648.69;10421279;28;20033;-77
2023/12/13 09:57:19;;;;;;;138.70;56.72;;;;;;;8.77;100.00;99649.34;10435215;28;20064;-77
2023/12/13 10:02:20;;;;;;;129.52;58.05;;;;;;;9.02;100.00;99670.50;10451775;28;20455;-75
2023/12/13 10:07:25;;;;;;;119.43;56.83;;;;;;;9.15;100.00;99676.53;10437518;28;21597;-77
2023/12/13 10:12:26;;;;;;;119.78;53.47;;;;;;;9.17;100.00;99686.16;10419937;28;20077;-77
2023/12/13 10:17:26;;;;;;;124.00;58.13;;;;;;;9.22;100.00;99688.91;10438580;28;20087;-76
2023/12/13 10:22:27;;;;;;;115.45;56.88;;;;;;;9.26;100.00;99706.50;10436710;28;20033;-77
2023/12/13 10:27:28;;;;;;;130.02;56.17;;;;;;;9.20;100.00;99704.00;10403096;28;20047;-77
2023/12/13 10:32:28;;;;;;;123.22;53.95;;;;;;;9.18;100.00;99697.97;10432830;28;20056;-77
2023/12/13 10:37:30;;;;;;;117.32;54.92;;;;;;;9.13;100.00;99718.00;10454831;28;20139;-77
2023/12/13 10:42:31;;;;;;;119.88;56.60;;;;;;;9.00;100.00;99708.38;10436999;28;20547;-78
2023/12/13 10:47:31;;;;;;;105.85;54.83;;;;;;;9.01;100.00;99714.69;10405022;28;20045;-76
2023/12/13 10:52:41;;;;;;;111.30;55.00;;;;;;;9.00;100.00;99716.63;10403311;28;20078;-76
2023/12/13 10:57:41;;;;;;;112.03;56.88;;;;;;;9.00;100.00;99711.13;10414480;28;20047;-76
2023/12/13 11:02:48;;;;;;;115.07;55.22;;;;;;;9.23;100.00;99736.41;10411394;28;20046;-78
2023/12/13 11:07:48;;;;;;;105.40;53.72;;;;;;;9.24;100.00;99729.81;10444385;28;20105;-77
2023/12/13 11:12:49;;;;;;;113.80;55.15;;;;;;;9.12;100.00;99734.75;10439781;28;20033;-78
2023/12/13 11:17:50;;;;;;;126.07;54.10;;;;;;;9.04;100.00;99738.88;10414600;28;20033;-77
2023/12/13 11:22:54;;;;;;;110.28;54.65;;;;;;;8.81;100.00;99737.44;10432214;28;20481;-78
2023/12/13 11:27:56;;;;;;;102.10;54.88;;;;;;;8.22;100.00;99654.38;10467105;28;20052;-77
2023/12/13 11:32:56;;;;;;;99.65;55.22;;;;;;;8.76;100.00;99765.69;10448692;28;20033;-77
2023/12/13 11:37:59;;;;;;;128.40;56.60;;;;;;;8.72;100.00;99766.50;10436369;28;20079;-77
2023/12/13 11:42:59;;;;;;;105.72;55.97;;;;;;;8.78;100.00;99771.72;10432640;28;20062;-77
2023/12/13 11:48:01;;;;;;;103.00;55.03;;;;;;;8.81;100.00;99767.63;10454421;28;20044;-77
2023/12/13 11:53:01;;;;;;;101.10;55.25;;;;;;;8.83;100.00;99768.19;10424346;28;20135;-77
2023/12/13 11:58:03;;;;;;;111.43;57.15;;;;;;;8.91;100.00;99778.66;10458510;28;20496;-77
2023/12/13 12:03:04;;;;;;;104.25;57.20;;;;;;;8.93;100.00;99784.69;10448161;28;20041;-77
2023/12/13 12:08:08;;;;;;;96.32;54.50;;;;;;;8.78;100.00;99776.41;10439315;28;20511;-77
2023/12/13 12:13:08;;;;;;;69.95;46.47;;;;;;;8.51;100.00;99788.34;10422675;28;20104;-77
2023/12/13 12:18:08;;;;;;;67.03;43.08;;;;;;;8.36;100.00;99829.41;10455644;28;20144;-77
2023/12/13 12:23:12;;;;;;;55.90;40.05;;;;;;;8.09;100.00;99780.97;10438071;28;20037;-78
2023/12/13 12:28:13;;;;;;;52.13;39.65;;;;;;;7.94;100.00;99789.94;10459418;28;20041;-77
2023/12/13 12:33:13;;;;;;;61.05;38.83;;;;;;;7.89;100.00;99803.59;10461236;28;20041;-77
2023/12/13 12:38:14;;;;;;;56.47;39.15;;;;;;;7.83;100.00;99816.44;10449285;28;20045;-77
2023/12/13 12:43:17;;;;;;;53.63;37.13;;;;;;;7.71;100.00;99821.28;10453402;28;20110;-76
2023/12/13 12:48:18;;;;;;;52.60;38.17;;;;;;;7.63;100.00;99828.03;10428693;28;20041;-77
2023/12/13 12:53:18;;;;;;;57.40;38.83;;;;;;;7.55;100.00;99836.75;10443986;28;20036;-77
2023/12/13 12:58:19;;;;;;;56.63;37.13;;;;;;;7.45;100.00;99837.47;10435216;28;20037;-77
2023/12/13 13:03:20;;;;;;;51.70;37.67;;;;;;;7.32;100.00;99834.31;10423535;28;20048;-77
2023/12/13 13:08:20;;;;;;;53.28;37.22;;;;;;;7.31;100.00;99840.88;10424114;28;20041;-77
2023/12/13 13:13:21;;;;;;;40.47;34.90;;;;;;;7.24;100.00;99839.16;10441545;28;20048;-78
2023/12/13 13:18:21;;;;;;;39.00;33.67;;;;;;;7.14;100.00;99840.97;10474881;28;20033;-77
2023/12/13 13:23:21;;;;;;;41.92;34.00;;;;;;;6.87;100.00;99860.91;10458736;28;20044;-77
2023/12/13 13:28:22;;;;;;;43.17;34.25;;;;;;;6.86;100.00;99865.56;10468954;28;20040;-77
2023/12/13 13:33:23;;;;;;;35.70;32.30;;;;;;;7.00;100.00;99851.47;10448345;28;20037;-76
2023/12/13 13:38:23;;;;;;;34.88;31.48;;;;;;;7.02;100.00;99863.81;10465722;28;20030;-77
2023/12/13 13:43:23;;;;;;;36.70;33.10;;;;;;;6.99;100.00;99875.28;10423732;28;20041;-77
2023/12/13 13:48:24;;;;;;;34.65;31.65;;;;;;;6.93;100.00;99890.00;10438624;28;20077;-77
2023/12/13 13:53:25;;;;;;;33.35;30.55;;;;;;;6.72;100.00;99871.66;10424129;28;20091;-77
2023/12/13 13:58:25;;;;;;;33.80;30.33;;;;;;;6.64;100.00;99870.19;10452389;28;20037;-77
2023/12/13 14:03:26;;;;;;;32.17;29.55;;;;;;;6.69;100.00;99896.78;10434179;28;20037;-76
2023/12/13 14:08:27;;;;;;;30.77;28.10;;;;;;;6.61;100.00;99895.31;10429474;28;20036;-76
2023/12/13 14:13:27;;;;;;;29.27;27.13;;;;;;;6.53;100.00;99923.94;10457379;28;20043;-77
2023/12/13 14:18:28;;;;;;;29.80;27.40;;;;;;;6.53;100.00;99934.88;10422393;28;20036;-77
2023/12/13 14:23:28;;;;;;;32.35;29.17;;;;;;;6.40;100.00;99935.19;10455476;28;20037;-77
2023/12/13 14:28:29;;;;;;;31.02;28.17;;;;;;;6.41;100.00;99956.81;10399787;28;20037;-77
2023/12/13 14:33:31;;;;;;;30.05;27.80;;;;;;;6.24;100.00;99947.78;10438395;28;20037;-77
2023/12/13 14:38:33;;;;;;;29.88;27.63;;;;;;;6.22;100.00;99960.88;10432583;28;20033;-77
2023/12/13 14:43:34;;;;;;;29.70;27.35;;;;;;;6.22;100.00;99972.66;10420333;28;20039;-77
2023/12/13 14:48:35;;;;;;;28.70;26.40;;;;;;;6.11;100.00;99973.53;10419611;28;20068;-77
2023/12/13 14:53:36;;;;;;;30.85;28.35;;;;;;;6.16;100.00;99995.50;10454380;28;20859;-76
2023/12/13 14:58:38;;;;;;;32.65;29.67;;;;;;;6.05;100.00;100004.56;10436646;28;20071;-77
2023/12/13 15:03:38;;;;;;;33.22;30.27;;;;;;;6.03;100.00;100023.13;10395187;28;20047;-77
2023/12/13 15:08:39;;;;;;;32.78;29.75;;;;;;;5.89;100.00;100021.72;10400454;28;20041;-77
2023/12/13 15:13:40;;;;;;;33.10;30.15;;;;;;;5.81;100.00;100040.19;10453444;28;20041;-77
2023/12/13 15:18:40;;;;;;;34.95;31.60;;;;;;;5.72;100.00;100036.16;10402094;28;20037;-76
2023/12/13 15:23:41;;;;;;;34.33;31.05;;;;;;;5.69;100.00;100049.50;10419500;28;20049;-75
2023/12/13 15:28:41;;;;;;;37.38;33.35;;;;;;;5.66;100.00;100057.09;10418907;28;20052;-76
2023/12/13 15:33:42;;;;;;;40.35;35.88;;;;;;;5.55;100.00;100057.13;10433825;28;20037;-77
2023/12/13 15:38:42;;;;;;;40.75;36.15;;;;;;;5.58;100.00;100086.66;10417934;28;20033;-76
2023/12/13 15:43:44;;;;;;;40.38;36.10;;;;;;;5.57;100.00;100095.94;10428241;28;20052;-77
2023/12/13 15:48:44;;;;;;;38.63;34.47;;;;;;;5.48;100.00;100092.75;10407358;28;20423;-77
2023/12/13 15:53:45;;;;;;;40.47;36.22;;;;;;;5.44;100.00;100092.41;10383230;28;20046;-78
2023/12/13 15:58:45;;;;;;;40.20;36.28;;;;;;;5.28;100.00;100106.78;10460046;28;20041;-76
2023/12/13 16:03:46;;;;;;;37.78;33.75;;;;;;;5.20;100.00;100101.66;10410226;28;20095;-77
2023/12/13 16:08:47;;;;;;;36.83;33.03;;;;;;;5.25;100.00;100119.00;10461466;28;20036;-77
2023/12/13 16:13:47;;;;;;;38.45;34.63;;;;;;;5.19;100.00;100117.22;10411212;28;20037;-76
2023/12/13 16:18:48;;;;;;;36.33;32.40;;;;;;;5.19;100.00;100146.41;10442465;28;20467;-77
2023/12/13 16:23:49;;;;;;;33.63;30.20;;;;;;;5.15;100.00;100142.50;10442109;28;20473;-76
2023/12/13 16:28:49;;;;;;;32.45;29.35;;;;;;;5.11;100.00;100153.03;10453980;28;20140;-77
2023/12/13 16:33:50;;;;;;;33.72;30.63;;;;;;;5.08;100.00;100158.13;10433269;28;20051;-77
2023/12/13 16:38:50;;;;;;;32.55;29.67;;;;;;;4.88;100.00;100147.53;10442158;28;20048;-76
2023/12/13 16:43:50;;;;;;;32.22;29.25;;;;;;;4.93;100.00;100189.41;10438209;28;20052;-76
2023/12/13 16:48:51;;;;;;;31.45;28.83;;;;;;;4.92;100.00;100176.88;10425389;28;20099;-75
2023/12/13 16:53:52;;;;;;;30.63;28.17;;;;;;;4.83;100.00;100180.97;10453682;28;20158;-77
2023/12/13 16:58:52;;;;;;;31.15;28.45;;;;;;;4.72;100.00;100187.25;10434925;28;20473;-77
2023/12/13 17:03:57;;;;;;;29.17;26.27;;;;;;;4.83;100.00;100219.16;10412370;28;20060;-76
2023/12/13 17:08:59;;;;;;;31.02;28.50;;;;;;;4.74;100.00;100217.84;10470483;28;20041;-75
2023/12/13 17:14:00;;;;;;;30.08;27.30;;;;;;;4.73;100.00;100237.97;10455304;28;20083;-76
2023/12/13 17:19:00;;;;;;;30.60;28.02;;;;;;;4.77;100.00;100255.53;10457944;28;20036;-76
2023/12/13 17:24:00;;;;;;;31.50;28.40;;;;;;;4.61;100.00;100251.56;10406761;28;20057;-76
2023/12/13 17:29:01;;;;;;;34.00;31.10;;;;;;;4.56;100.00;100252.25;10426622;28;20409;-79
2023/12/13 17:34:02;;;;;;;34.53;31.52;;;;;;;4.62;100.00;100284.03;10438681;28;20083;-76
2023/12/13 17:39:03;;;;;;;33.53;30.33;;;;;;;4.47;100.00;100289.06;10441410;28;20037;-77
2023/12/13 17:44:04;;;;;;;32.67;29.77;;;;;;;4.50;100.00;100299.50;10458964;28;20123;-78
2023/12/13 17:49:05;;;;;;;31.15;28.67;;;;;;;4.43;100.00;100309.69;10470101;28;20045;-78
2023/12/13 17:54:05;;;;;;;32.05;29.13;;;;;;;4.36;100.00;100303.44;10435515;28;20041;-76
2023/12/13 17:59:06;;;;;;;30.10;27.60;;;;;;;4.39;100.00;100352.06;10454869;28;20056;-77
2023/12/13 18:04:06;;;;;;;29.42;27.13;;;;;;;4.37;100.00;100340.56;10445656;28;20048;-76
2023/12/13 18:09:08;;;;;;;29.27;26.98;;;;;;;4.38;100.00;100347.66;10404127;28;20045;-77
2023/12/13 18:14:08;;;;;;;31.60;29.10;;;;;;;4.40;100.00;100367.34;10426525;28;20132;-77
2023/12/13 18:19:09;;;;;;;29.85;27.40;;;;;;;4.25;100.00;100354.09;10455704;28;20040;-77
2023/12/13 18:24:10;;;;;;;30.20;27.40;;;;;;;4.39;100.00;100385.59;10419988;28;20036;-78
2023/12/13 18:29:11;;;;;;;31.33;28.63;;;;;;;4.42;100.00;100392.50;10410743;28;20037;-77
2023/12/13 18:34:12;;;;;;;32.20;29.40;;;;;;;4.41;100.00;100399.00;10455203;28;20029;-77
2023/12/13 18:39:13;;;;;;;32.53;29.73;;;;;;;4.42;100.00;100411.56;10403800;28;20117;-78
2023/12/13 18:44:13;;;;;;;31.92;29.13;;;;;;;4.43;100.00;100421.44;10426846;28;20052;-77
2023/12/13 18:49:14;;;;;;;32.85;29.95;;;;;;;4.41;100.00;100431.72;10433816;28;20076;-78
2023/12/13 18:54:14;;;;;;;30.80;28.15;;;;;;;4.23;100.00;100425.16;10401921;28;20065;-78
2023/12/13 18:59:15;;;;;;;28.05;25.75;;;;;;;4.27;100.00;100449.25;10427788;28;20065;-78
2023/12/13 19:04:15;;;;;;;28.00;25.60;;;;;;;4.19;100.00;100456.63;10416090;28;20060;-77
2023/12/13 19:09:17;;;;;;;29.55;27.02;;;;;;;4.24;100.00;100475.88;10397518;28;20044;-77
2023/12/13 19:14:18;;;;;;;28.65;26.15;;;;;;;4.15;100.00;100477.19;10439703;28;20044;-78
2023/12/13 19:19:18;;;;;;;28.95;26.35;;;;;;;4.22;100.00;100483.44;10438282;28;20047;-77
2023/12/13 19:24:22;;;;;;;28.15;25.95;;;;;;;4.16;100.00;100476.16;10435293;28;20067;-77
2023/12/13 19:29:25;;;;;;;27.60;25.38;;;;;;;4.25;100.00;100510.25;10420753;28;20049;-77
2023/12/13 19:34:26;;;;;;;29.50;27.30;;;;;;;4.17;100.00;100499.63;10439058;28;20040;-77
2023/12/13 19:39:26;;;;;;;30.40;27.63;;;;;;;4.23;100.00;100523.25;10421990;28;20033;-79
2023/12/13 19:44:27;;;;;;;31.30;28.73;;;;;;;4.20;100.00;100512.81;10370586;28;1108283;-78
2023/12/13 19:49:27;;;;;;;30.10;27.92;;;;;;;4.22;100.00;100532.50;10424409;28;20131;-78
2023/12/13 19:54:28;;;;;;;28.77;26.40;;;;;;;4.29;100.00;100553.41;10420959;28;20336;-77
2023/12/13 19:59:28;;;;;;;29.48;27.00;;;;;;;4.15;100.00;100558.13;10417769;28;20083;-78
2023/12/13 20:04:29;;;;;;;28.77;26.58;;;;;;;4.22;100.00;100565.19;10435213;28;20045;-77
2023/12/13 20:09:29;;;;;;;29.65;27.15;;;;;;;4.18;100.00;100563.97;10401698;28;20052;-77
2023/12/13 20:14:30;;;;;;;28.73;26.55;;;;;;;4.20;100.00;100574.66;10459719;28;20037;-78
2023/12/13 20:19:30;;;;;;;30.40;27.95;;;;;;;4.25;100.00;100597.44;10439536;28;20137;-77
2023/12/13 20:24:31;;;;;;;30.70;28.30;;;;;;;4.18;100.00;100593.94;10455413;28;20048;-77
2023/12/13 20:29:31;;;;;;;31.52;29.02;;;;;;;4.23;100.00;100605.00;10446025;28;20045;-78
2023/12/13 20:34:32;;;;;;;31.30;28.65;;;;;;;4.17;100.00;100599.59;10466930;28;20040;-77
2023/12/13 20:39:33;;;;;;;32.78;30.05;;;;;;;4.20;100.00;100626.44;10442527;28;20098;-76
2023/12/13 20:44:34;;;;;;;30.77;28.48;;;;;;;4.21;100.00;100622.63;10441412;28;20059;-77
2023/12/13 20:49:34;;;;;;;32.05;29.20;;;;;;;4.20;100.00;100637.31;10424332;28;20037;-78
2023/12/13 20:54:35;;;;;;;30.58;27.98;;;;;;;4.21;100.00;100644.44;10407733;28;20037;-77
2023/12/13 20:59:57;;;;;;;30.67;28.17;;;;;;;4.20;100.00;100653.66;10413588;28;20040;-78
2023/12/13 21:04:58;;;;;;;30.23;27.67;;;;;;;4.18;100.00;100653.06;10438833;28;20037;-76
2023/12/13 21:09:58;;;;;;;29.63;27.00;;;;;;;4.07;100.00;100632.75;10453712;28;20044;-76
2023/12/13 21:14:59;;;;;;;30.75;28.17;;;;;;;4.16;100.00;100668.78;10405304;28;20040;-75
2023/12/13 21:19:59;;;;;;;30.27;27.77;;;;;;;4.24;100.00;100684.88;10420776;28;20052;-78
2023/12/13 21:25:00;;;;;;;30.63;28.20;;;;;;;4.17;100.00;100682.16;10395143;28;20067;-77
2023/12/13 21:30:01;;;;;;;32.78;30.25;;;;;;;4.21;100.00;100699.75;10400376;28;20098;-78
2023/12/13 21:35:03;;;;;;;30.10;27.58;;;;;;;4.18;100.00;100711.09;10405861;28;20338;-77
2023/12/13 21:40:05;;;;;;;31.75;29.08;;;;;;;4.23;100.00;100722.19;10423924;28;20037;-77
2023/12/13 21:45:07;;;;;;;29.77;27.48;;;;;;;4.15;100.00;100700.63;10440209;28;20101;-78
2023/12/13 21:50:07;;;;;;;31.42;28.92;;;;;;;4.18;100.00;100705.66;10434023;28;20045;-78
2023/12/13 21:55:08;;;;;;;27.63;25.48;;;;;;;4.28;100.00;100735.19;10395072;28;20047;-78
2023/12/13 22:00:10;;;;;;;26.33;24.23;;;;;;;4.20;100.00;100729.97;10397572;28;20063;-77
2023/12/13 22:05:11;;;;;;;29.38;26.63;;;;;;;4.22;100.00;100736.88;10408457;28;20056;-78
2023/12/13 22:10:11;;;;;;;30.08;27.65;;;;;;;4.13;100.00;100729.97;10434498;28;20053;-78
2023/12/13 22:15:12;;;;;;;28.65;26.17;;;;;;;4.11;100.00;100753.88;10415310;28;20553;-78
2023/12/13 22:20:15;;;;;;;28.15;25.95;;;;;;;4.10;100.00;100775.91;10415488;28;20041;-77
2023/12/13 22:25:16;;;;;;;29.98;27.77;;;;;;;4.08;100.00;100784.28;10431724;28;20063;-77
2023/12/13 22:30:17;;;;;;;28.15;26.15;;;;;;;4.11;100.00;100811.09;10418438;28;20063;-78